createdAt,value
2022-07-28T00:00:01.067Z,100448.72
2022-07-28T00:03:02.681Z,100447.63
2022-07-28T00:06:04.273Z,100439.72
2022-07-28T00:09:05.683Z,100431.53
2022-07-28T00:12:07.548Z,100434.56
2022-07-28T00:15:09.581Z,100436.16
2022-07-28T00:18:11.127Z,100430.56
2022-07-28T00:21:13.083Z,100428.00
2022-07-28T00:24:15.005Z,100432.03
2022-07-28T00:27:19.289Z,100434.22
2022-07-28T00:30:21.017Z,100435.28
2022-07-28T00:33:22.805Z,100429.81
2022-07-28T00:36:25.643Z,100432.63
2022-07-28T00:39:27.453Z,100436.41
2022-07-28T00:42:28.868Z,100428.44
2022-07-28T00:45:30.283Z,100435.28
2022-07-28T00:48:32.062Z,100427.97
2022-07-28T00:51:33.658Z,100426.25
2022-07-28T00:54:36.034Z,100424.69
2022-07-28T00:57:37.517Z,100421.47
2022-07-28T01:00:38.944Z,100413.81
2022-07-28T01:03:43.128Z,100424.09
2022-07-28T01:07:06.491Z,100419.38
2022-07-28T01:10:28.596Z,100418.19
2022-07-28T01:13:47.514Z,100419.38
2022-07-28T01:17:13.834Z,100411.78
2022-07-28T01:20:18.532Z,100411.75
2022-07-28T01:23:32.066Z,100404.69
2022-07-28T01:27:00.010Z,100398.75
2022-07-28T01:30:10.873Z,100388.13
2022-07-28T01:33:18.564Z,100390.97
2022-07-28T01:36:25.308Z,100390.88
2022-07-28T01:39:32.153Z,100399.81
2022-07-28T01:42:39.053Z,100385.69
2022-07-28T01:45:43.173Z,100389.84
2022-07-28T01:48:46.938Z,100391.66
2022-07-28T01:51:51.227Z,100401.91
2022-07-28T01:54:54.962Z,100393.13
2022-07-28T01:57:57.611Z,100385.69
2022-07-28T02:01:00.421Z,100386.16
2022-07-28T02:04:04.450Z,100385.44
2022-07-28T02:07:09.849Z,100385.50
2022-07-28T02:10:16.829Z,100373.25
2022-07-28T02:13:18.352Z,100388.91
2022-07-28T02:16:23.160Z,100381.38
2022-07-28T02:19:27.731Z,100373.09
2022-07-28T02:22:30.739Z,100373.09
2022-07-28T02:25:33.222Z,100367.00
2022-07-28T02:28:34.909Z,100360.09
2022-07-28T02:31:50.417Z,100362.00
2022-07-28T02:34:52.939Z,100353.44
2022-07-28T02:38:00.625Z,100351.00
2022-07-28T02:41:17.425Z,100349.97
2022-07-28T02:44:23.292Z,100346.38
2022-07-28T02:47:27.972Z,100347.25
2022-07-28T02:50:29.661Z,100346.31
2022-07-28T02:53:31.552Z,100345.56
2022-07-28T02:56:34.277Z,100355.03
2022-07-28T02:59:36.621Z,100353.38
2022-07-28T03:02:39.518Z,100355.78
2022-07-28T03:05:41.662Z,100355.06
2022-07-28T03:08:43.534Z,100356.97
2022-07-28T03:11:54.673Z,100355.69
2022-07-28T03:14:56.106Z,100359.31
2022-07-28T03:17:57.722Z,100361.28
2022-07-28T03:20:59.295Z,100353.78
2022-07-28T03:24:00.767Z,100357.44
2022-07-28T03:27:08.244Z,100357.31
2022-07-28T03:30:14.123Z,100361.91
2022-07-28T03:33:15.634Z,100361.06
2022-07-28T03:36:24.301Z,100364.50
2022-07-28T03:39:27.616Z,100360.56
2022-07-28T03:42:35.342Z,100368.81
2022-07-28T03:45:40.846Z,100369.63
2022-07-28T03:48:42.557Z,100359.16
2022-07-28T03:51:44.005Z,100357.47
2022-07-28T03:54:45.599Z,100361.28
2022-07-28T03:57:47.635Z,100363.44
2022-07-28T04:00:49.679Z,100358.94
2022-07-28T04:03:51.161Z,100365.34
2022-07-28T04:06:52.582Z,100356.59
2022-07-28T04:09:54.034Z,100361.09
2022-07-28T04:12:57.401Z,100367.69
2022-07-28T04:15:59.931Z,100358.53
2022-07-28T04:19:01.652Z,100360.00
2022-07-28T04:22:03.120Z,100360.78
2022-07-28T04:25:05.625Z,100358.97
2022-07-28T04:28:07.149Z,100359.69
2022-07-28T04:31:08.747Z,100359.59
2022-07-28T04:34:10.288Z,100357.44
2022-07-28T04:37:12.642Z,100359.34
2022-07-28T04:40:15.154Z,100356.16
2022-07-28T04:43:16.681Z,100362.69
2022-07-28T04:46:18.243Z,100371.13
2022-07-28T04:49:19.793Z,100371.34
2022-07-28T04:52:21.983Z,100370.91
2022-07-28T04:55:24.745Z,100377.78
2022-07-28T04:58:27.442Z,100364.09
2022-07-28T05:01:32.470Z,100361.94
2022-07-28T05:04:34.203Z,100360.03
2022-07-28T05:07:40.958Z,100367.28
2022-07-28T05:10:42.377Z,100369.25
2022-07-28T05:13:44.497Z,100364.94
2022-07-28T05:16:46.065Z,100373.41
2022-07-28T05:19:47.593Z,100374.97
2022-07-28T05:22:53.605Z,100364.50
2022-07-28T05:25:55.125Z,100363.53
2022-07-28T05:28:57.200Z,100358.88
2022-07-28T05:31:58.670Z,100366.06
2022-07-28T05:35:00.108Z,100361.84
2022-07-28T05:38:01.673Z,100361.25
2022-07-28T05:41:03.113Z,100367.41
2022-07-28T05:44:04.633Z,100363.53
2022-07-28T05:47:06.360Z,100365.38
2022-07-28T05:50:08.148Z,100378.16
2022-07-28T05:53:09.593Z,100370.19
2022-07-28T05:56:11.043Z,100377.91
2022-07-28T05:59:14.805Z,100376.28
2022-07-28T06:02:16.659Z,100366.94
2022-07-28T06:05:20.655Z,100373.66
2022-07-28T06:08:24.985Z,100373.38
2022-07-28T06:11:26.456Z,100367.41
2022-07-28T06:14:27.876Z,100378.44
2022-07-28T06:17:29.291Z,100369.59
2022-07-28T06:20:30.733Z,100373.22
2022-07-28T06:23:32.173Z,100370.75
2022-07-28T06:26:34.493Z,100374.06
2022-07-28T06:29:35.980Z,100371.53
2022-07-28T06:32:37.521Z,100373.59
2022-07-28T06:35:46.642Z,100365.81
2022-07-28T06:38:52.645Z,100376.38
2022-07-28T06:41:54.075Z,100381.88
2022-07-28T06:44:59.215Z,100375.13
2022-07-28T06:48:01.198Z,100372.97
2022-07-28T06:51:02.809Z,100379.09
2022-07-28T06:54:11.105Z,100388.00
2022-07-28T06:57:13.734Z,100382.19
2022-07-28T07:00:15.984Z,100382.22
2022-07-28T07:03:17.574Z,100382.03
2022-07-28T07:06:19.088Z,100382.50
2022-07-28T07:09:20.633Z,100374.94
2022-07-28T07:12:22.201Z,100372.44
2022-07-28T07:15:23.749Z,100376.81
2022-07-28T07:18:25.203Z,100370.69
2022-07-28T07:21:26.657Z,100372.22
2022-07-28T07:24:28.321Z,100367.16
2022-07-28T07:27:29.792Z,100363.97
2022-07-28T07:30:31.345Z,100359.72
2022-07-28T07:33:32.845Z,100364.41
2022-07-28T07:36:34.271Z,100361.00
2022-07-28T07:39:35.690Z,100350.09
2022-07-28T07:42:38.501Z,100365.44
2022-07-28T07:45:41.186Z,100354.25
2022-07-28T07:48:43.005Z,100351.56
2022-07-28T07:51:44.550Z,100345.84
2022-07-28T07:54:46.095Z,100347.13
2022-07-28T07:57:47.552Z,100352.19
2022-07-28T08:00:48.966Z,100347.16
2022-07-28T08:03:50.674Z,100349.94
2022-07-28T08:06:53.342Z,100347.44
2022-07-28T08:09:54.838Z,100344.81
2022-07-28T08:12:56.398Z,100338.63
2022-07-28T08:15:59.545Z,100336.78
2022-07-28T08:19:01.126Z,100338.44
2022-07-28T08:22:02.631Z,100339.31
2022-07-28T08:25:04.250Z,100338.94
2022-07-28T08:28:05.678Z,100345.06
2022-07-28T08:31:07.222Z,100334.56
2022-07-28T08:34:26.502Z,100337.56
2022-07-28T08:37:30.147Z,100331.31
2022-07-28T08:40:32.779Z,100338.09
2022-07-28T08:43:38.220Z,100331.88
2022-07-28T08:46:41.184Z,100327.63
2022-07-28T08:49:43.520Z,100324.47
2022-07-28T08:52:47.986Z,100327.72
2022-07-28T08:55:50.795Z,100330.97
2022-07-28T08:58:52.651Z,100319.72
2022-07-28T09:01:57.604Z,100322.28
2022-07-28T09:04:59.712Z,100320.06
2022-07-28T09:08:02.557Z,100317.13
2022-07-28T09:11:06.138Z,100325.91
2022-07-28T09:14:07.644Z,100315.50
2022-07-28T09:17:09.608Z,100306.22
2022-07-28T09:20:12.206Z,100305.31
2022-07-28T09:23:41.798Z,100298.66
2022-07-28T09:26:35.793Z,100307.06
2022-07-28T09:29:38.946Z,100301.38
2022-07-28T09:32:40.486Z,100294.44
2022-07-28T09:35:44.329Z,100293.31
2022-07-28T09:38:46.516Z,100281.91
2022-07-28T09:41:57.071Z,100288.22
2022-07-28T09:45:25.051Z,100286.72
2022-07-28T09:48:27.055Z,100288.69
2022-07-28T09:51:30.690Z,100279.44
2022-07-28T09:54:35.159Z,100277.44
2022-07-28T09:57:43.258Z,100275.56
2022-07-28T10:00:47.509Z,100267.56
2022-07-28T10:03:55.882Z,100263.06
2022-07-28T10:07:05.407Z,100261.88
2022-07-28T10:10:08.596Z,100260.25
2022-07-28T10:13:10.087Z,100246.94
2022-07-28T10:16:11.635Z,100250.50
2022-07-28T10:19:13.143Z,100249.03
2022-07-28T10:22:17.921Z,100239.94
2022-07-28T10:25:21.666Z,100239.41
2022-07-28T10:28:23.890Z,100227.75
2022-07-28T10:31:35.369Z,100227.69
2022-07-28T10:34:54.059Z,100232.13
2022-07-28T10:38:00.239Z,100236.19
2022-07-28T10:41:03.997Z,100218.72
2022-07-28T10:44:05.962Z,100221.28
2022-07-28T10:47:18.548Z,100216.84
2022-07-28T10:50:22.637Z,100221.94
2022-07-28T10:53:37.185Z,100213.81
2022-07-28T10:56:57.159Z,100208.38
2022-07-28T11:00:26.494Z,100214.47
2022-07-28T11:03:44.222Z,100219.09
2022-07-28T11:06:47.908Z,100218.56
2022-07-28T11:09:50.044Z,100211.97
2022-07-28T11:12:54.296Z,100210.75
2022-07-28T11:16:17.244Z,100214.34
2022-07-28T11:19:42.435Z,100212.28
2022-07-28T11:22:40.286Z,100194.81
2022-07-28T11:25:42.215Z,100192.41
2022-07-28T11:29:03.906Z,100196.47
2022-07-28T11:32:05.688Z,100200.16
2022-07-28T11:35:08.854Z,100192.84
2022-07-28T11:38:12.512Z,100184.31
2022-07-28T11:41:37.464Z,100181.16
2022-07-28T11:44:40.772Z,100170.13
2022-07-28T11:47:43.674Z,100172.63
2022-07-28T11:51:05.096Z,100176.50
2022-07-28T11:54:16.493Z,100172.53
2022-07-28T11:57:19.514Z,100172.84
2022-07-28T12:00:22.378Z,100170.16
2022-07-28T12:03:49.234Z,100166.19
2022-07-28T12:06:52.290Z,100170.75
2022-07-28T12:09:53.713Z,100171.66
2022-07-28T12:12:57.630Z,100167.78
2022-07-28T12:15:59.149Z,100156.72
2022-07-28T12:19:01.824Z,100166.38
2022-07-28T12:22:15.742Z,100157.19
2022-07-28T12:25:17.427Z,100156.19
2022-07-28T12:28:24.183Z,100149.84
2022-07-28T12:31:30.021Z,100149.19
2022-07-28T12:34:37.643Z,100134.13
2022-07-28T12:37:39.545Z,100144.69
2022-07-28T12:40:42.070Z,100141.13
2022-07-28T12:43:54.238Z,100139.13
2022-07-28T12:46:55.686Z,100130.91
2022-07-28T12:50:18.961Z,100126.84
2022-07-28T12:53:22.724Z,100127.72
2022-07-28T12:56:24.886Z,100117.56
2022-07-28T12:59:32.417Z,100113.03
2022-07-28T13:02:38.018Z,100119.38
2022-07-28T13:05:58.322Z,100123.00
2022-07-28T13:08:59.746Z,100115.00
2022-07-28T13:12:02.721Z,100110.06
2022-07-28T13:15:14.260Z,100113.78
2022-07-28T13:18:15.716Z,100114.00
2022-07-28T13:21:41.157Z,100111.13
2022-07-28T13:25:02.248Z,100106.41
2022-07-28T13:28:03.802Z,100103.91
2022-07-28T13:31:05.271Z,100092.13
2022-07-28T13:34:09.186Z,100099.34
2022-07-28T13:37:11.573Z,100100.66
2022-07-28T13:40:13.040Z,100095.56
2022-07-28T13:43:14.542Z,100093.06
2022-07-28T13:46:16.950Z,100095.81
2022-07-28T13:49:21.470Z,100089.75
2022-07-28T13:52:33.191Z,100077.13
2022-07-28T13:55:36.882Z,100078.94
2022-07-28T13:58:38.434Z,100080.50
2022-07-28T14:01:43.214Z,100072.19
2022-07-28T14:04:46.048Z,100078.34
2022-07-28T14:07:51.907Z,100069.97
2022-07-28T14:10:56.268Z,100069.03
2022-07-28T14:13:57.746Z,100064.88
2022-07-28T14:17:00.140Z,100067.94
2022-07-28T14:20:01.809Z,100061.63
2022-07-28T14:23:03.386Z,100054.91
2022-07-28T14:26:33.264Z,100057.53
2022-07-28T14:29:27.658Z,100054.19
2022-07-28T14:32:29.166Z,100055.38
2022-07-28T14:35:30.595Z,100045.94
2022-07-28T14:41:54.517Z,100048.69
2022-07-28T14:44:59.334Z,100046.03
2022-07-28T14:48:00.855Z,100045.09
2022-07-28T14:51:02.289Z,100042.84
2022-07-28T14:54:03.872Z,100042.53
2022-07-28T14:57:05.310Z,100053.56
2022-07-28T15:00:12.251Z,100047.59
2022-07-28T15:03:13.735Z,100052.66
2022-07-28T15:06:15.208Z,100056.09
2022-07-28T15:09:16.640Z,100052.88
2022-07-28T15:12:18.082Z,100050.72
2022-07-28T15:15:26.238Z,100045.28
2022-07-28T15:18:27.706Z,100041.81
2022-07-28T15:21:34.349Z,100024.25
2022-07-28T15:24:37.740Z,100028.09
2022-07-28T15:27:44.418Z,100027.47
2022-07-28T15:30:51.851Z,100027.47
2022-07-28T15:33:57.955Z,100024.63
2022-07-28T15:37:00.896Z,100028.25
2022-07-28T15:40:02.312Z,100021.78
2022-07-28T15:43:04.318Z,100016.47
2022-07-28T15:46:09.333Z,100021.75
2022-07-28T15:49:12.265Z,100019.44
2022-07-28T15:52:14.513Z,100014.50
2022-07-28T15:55:15.924Z,100018.97
2022-07-28T15:58:17.380Z,100010.53
2022-07-28T16:01:19.416Z,100008.94
2022-07-28T16:04:20.857Z,100012.75
2022-07-28T16:07:23.650Z,100003.97
2022-07-28T16:10:26.250Z,100004.50
2022-07-28T16:13:32.138Z,99993.22
2022-07-28T16:16:38.808Z,99988.28
2022-07-28T16:19:49.508Z,99988.81
2022-07-28T16:22:52.217Z,99976.16
2022-07-28T16:25:53.795Z,99974.94
2022-07-28T16:28:55.729Z,99973.91
2022-07-28T16:31:57.146Z,99970.19
2022-07-28T16:34:58.549Z,99959.22
2022-07-28T16:38:01.556Z,99959.41
2022-07-28T16:41:03.554Z,99958.84
2022-07-28T16:44:06.147Z,99963.09
2022-07-28T16:47:07.599Z,99949.31
2022-07-28T16:50:09.555Z,99947.25
2022-07-28T16:53:12.173Z,99955.69
2022-07-28T16:56:17.475Z,99958.88
2022-07-28T16:59:18.913Z,99953.97
2022-07-28T17:02:20.322Z,99952.13
2022-07-28T17:05:21.810Z,99958.22
2022-07-28T17:08:23.532Z,99963.84
2022-07-28T17:11:24.965Z,99961.97
2022-07-28T17:14:26.375Z,99960.34
2022-07-28T17:17:28.269Z,99965.03
2022-07-28T17:20:29.718Z,99961.19
2022-07-28T17:23:31.373Z,99962.28
2022-07-28T17:29:58.088Z,99966.75
2022-07-28T17:33:06.066Z,99973.03
2022-07-28T17:36:09.754Z,99974.31
2022-07-28T17:39:12.610Z,99961.13
2022-07-28T17:42:14.041Z,99971.31
2022-07-28T17:45:16.210Z,99971.19
2022-07-28T17:48:18.629Z,99977.19
2022-07-28T17:51:20.133Z,99980.19
2022-07-28T17:54:24.884Z,99978.47
2022-07-28T17:57:27.621Z,99986.84
2022-07-28T18:00:31.882Z,99996.25
2022-07-28T18:03:59.226Z,100000.31
2022-07-28T18:06:54.837Z,99997.13
2022-07-28T18:09:56.285Z,100003.09
2022-07-28T18:12:57.702Z,100008.03
2022-07-28T18:15:59.132Z,100008.84
2022-07-28T18:19:00.637Z,100008.13
2022-07-28T18:22:02.086Z,100002.72
2022-07-28T18:25:03.772Z,100010.19
2022-07-28T18:28:07.645Z,100011.31
2022-07-28T18:31:09.109Z,100009.69
2022-07-28T18:34:10.586Z,100008.50
2022-07-28T18:37:15.075Z,100003.22
2022-07-28T18:40:18.045Z,100002.75
2022-07-28T18:43:19.511Z,100006.66
2022-07-28T18:46:21.038Z,100013.13
2022-07-28T18:49:26.898Z,100011.75
2022-07-28T18:52:28.661Z,100007.41
2022-07-28T18:55:30.114Z,100010.66
2022-07-28T18:58:31.610Z,100003.59
2022-07-28T19:01:33.099Z,100002.22
2022-07-28T19:04:34.536Z,100003.25
2022-07-28T19:07:36.354Z,99995.84
2022-07-28T19:10:37.901Z,100000.75
2022-07-28T19:13:39.387Z,100004.19
2022-07-28T19:16:40.815Z,100007.03
2022-07-28T19:19:42.528Z,100004.84
2022-07-28T19:22:43.929Z,100006.19
2022-07-28T19:25:45.850Z,100007.59
2022-07-28T19:28:47.385Z,100013.66
2022-07-28T19:31:48.861Z,100005.34
2022-07-28T19:34:50.320Z,100007.38
2022-07-28T19:37:52.662Z,100018.69
2022-07-28T19:40:55.425Z,100020.38
2022-07-28T19:43:57.697Z,100030.34
2022-07-28T19:47:00.367Z,100028.19
2022-07-28T19:50:01.789Z,100037.63
2022-07-28T19:53:03.819Z,100047.13
2022-07-28T19:56:08.787Z,100051.16
2022-07-28T19:59:10.720Z,100049.97
2022-07-28T20:02:12.306Z,100052.84
2022-07-28T20:05:13.802Z,100060.25
2022-07-28T20:08:15.293Z,100070.06
2022-07-28T20:11:16.957Z,100063.47
2022-07-28T20:14:18.821Z,100066.97
2022-07-28T20:17:37.569Z,100074.41
2022-07-28T20:20:39.790Z,100077.06
2022-07-28T20:23:42.210Z,100077.06
2022-07-28T20:26:45.707Z,100080.91
2022-07-28T20:29:47.128Z,100074.66
2022-07-28T20:32:48.674Z,100083.59
2022-07-28T20:35:50.468Z,100084.25
2022-07-28T20:38:56.125Z,100088.41
2022-07-28T20:41:57.578Z,100094.44
2022-07-28T20:44:59.134Z,100096.50
2022-07-28T20:48:00.851Z,100105.47
2022-07-28T20:51:02.918Z,100109.97
2022-07-28T20:54:04.871Z,100114.13
2022-07-28T20:57:06.623Z,100118.31
2022-07-28T21:00:08.911Z,100123.22
2022-07-28T21:03:10.512Z,100119.19
2022-07-28T21:06:12.406Z,100113.59
2022-07-28T21:09:16.686Z,100122.84
2022-07-28T21:12:18.114Z,100128.25
2022-07-28T21:15:20.731Z,100125.34
2022-07-28T21:18:22.163Z,100126.34
2022-07-28T21:21:23.909Z,100128.19
2022-07-28T21:24:25.315Z,100119.09
2022-07-28T21:27:27.288Z,100124.81
2022-07-28T21:30:28.919Z,100116.97
2022-07-28T21:33:30.480Z,100118.66
2022-07-28T21:36:32.021Z,100125.34
2022-07-28T21:39:34.259Z,100132.06
2022-07-28T21:42:35.682Z,100131.75
2022-07-28T21:45:37.143Z,100139.84
2022-07-28T21:48:38.761Z,100141.19
2022-07-28T21:51:46.509Z,100148.28
2022-07-28T21:54:48.617Z,100153.91
2022-07-28T21:57:50.086Z,100179.34
2022-07-28T22:00:51.642Z,100190.53
2022-07-28T22:03:53.160Z,100184.69
2022-07-28T22:06:54.815Z,100196.84
2022-07-28T22:09:56.725Z,100195.00
2022-07-28T22:13:00.115Z,100199.56
2022-07-28T22:16:01.716Z,100199.41
2022-07-28T22:19:04.060Z,100199.63
2022-07-28T22:22:05.527Z,100207.31
2022-07-28T22:25:07.701Z,100196.50
2022-07-28T22:28:09.148Z,100199.03
2022-07-28T22:31:17.025Z,100190.53
2022-07-28T22:34:18.850Z,100190.78
2022-07-28T22:37:20.601Z,100192.19
2022-07-28T22:40:22.715Z,100197.75
2022-07-28T22:43:24.214Z,100202.44
2022-07-28T22:46:25.775Z,100206.72
2022-07-28T22:49:27.276Z,100214.44
2022-07-28T22:52:29.897Z,100200.00
2022-07-28T22:55:31.399Z,100197.84
2022-07-28T22:58:32.851Z,100199.69
2022-07-28T23:01:35.265Z,100200.56
2022-07-28T23:04:36.887Z,100197.31
2022-07-28T23:07:53.162Z,100188.97
2022-07-28T23:10:59.022Z,100196.34
2022-07-28T23:14:00.510Z,100198.09
2022-07-28T23:17:02.376Z,100194.16
2022-07-28T23:20:05.025Z,100196.00
2022-07-28T23:23:06.988Z,100204.56
2022-07-28T23:26:08.431Z,100194.91
2022-07-28T23:29:09.846Z,100196.19
2022-07-28T23:32:16.654Z,100195.47
2022-07-28T23:35:19.063Z,100197.47
2022-07-28T23:38:20.492Z,100195.03
2022-07-28T23:41:21.993Z,100195.63
2022-07-28T23:44:23.483Z,100192.22
2022-07-28T23:47:24.923Z,100185.44
2022-07-28T23:50:27.065Z,100191.13
2022-07-28T23:53:28.572Z,100186.34
2022-07-28T23:56:30.362Z,100182.91
2022-07-28T23:59:31.868Z,100184.22
